sensor_id;sensor_type;location;lat;lon;timestamp;temperature;humidity
20911;DHT22;10615;42.702;23.314;2023-03-03T00:00:22;5.10;99.90
20911;DHT22;10615;42.702;23.314;2023-03-03T00:01:23;5.10;99.90
20911;DHT22;10615;42.702;23.314;2023-03-03T00:02:26;5.10;99.90
20911;DHT22;10615;42.702;23.314;2023-03-03T00:03:27;5.10;99.90
20911;DHT22;10615;42.702;23.314;2023-03-03T00:04:27;5.10;99.90
20911;DHT22;10615;42.702;23.314;2023-03-03T00:05:31;5.10;99.90
20911;DHT22;10615;42.702;23.314;2023-03-03T00:06:32;5.10;99.90
20911;DHT22;10615;42.702;23.314;2023-03-03T00:07:33;5.10;99.90
20911;DHT22;10615;42.702;23.314;2023-03-03T00:08:34;5.10;99.90
20911;DHT22;10615;42.702;23.314;2023-03-03T00:09:34;5.10;99.90
20911;DHT22;10615;42.702;23.314;2023-03-03T00:10:36;5.10;99.90
20911;DHT22;10615;42.702;23.314;2023-03-03T00:11:36;5.10;99.90
20911;DHT22;10615;42.702;23.314;2023-03-03T00:12:48;5.10;99.90
20911;DHT22;10615;42.702;23.314;2023-03-03T00:13:54;5.10;99.90
20911;DHT22;10615;42.702;23.314;2023-03-03T00:14:55;5.10;99.90
20911;DHT22;10615;42.702;23.314;2023-03-03T00:16:12;5.10;99.90
20911;DHT22;10615;42.702;23.314;2023-03-03T00:18:29;5.10;99.90
20911;DHT22;10615;42.702;23.314;2023-03-03T00:19:37;5.10;99.90
20911;DHT22;10615;42.702;23.314;2023-03-03T00:20:39;5.10;99.90
20911;DHT22;10615;42.702;23.314;2023-03-03T00:21:42;5.00;99.90
20911;DHT22;10615;42.702;23.314;2023-03-03T00:22:44;5.00;99.90
20911;DHT22;10615;42.702;23.314;2023-03-03T00:23:44;5.00;99.90
20911;DHT22;10615;42.702;23.314;2023-03-03T00:24:45;5.00;99.90
20911;DHT22;10615;42.702;23.314;2023-03-03T00:25:49;5.00;99.90
20911;DHT22;10615;42.702;23.314;2023-03-03T00:26:54;5.00;99.90
20911;DHT22;10615;42.702;23.314;2023-03-03T00:28:06;5.00;99.90
20911;DHT22;10615;42.702;23.314;2023-03-03T00:30:27;5.00;99.90
20911;DHT22;10615;42.702;23.314;2023-03-03T00:31:35;5.00;99.90
20911;DHT22;10615;42.702;23.314;2023-03-03T00:32:44;5.00;99.90
20911;DHT22;10615;42.702;23.314;2023-03-03T00:33:52;5.00;99.90
20911;DHT22;10615;42.702;23.314;2023-03-03T00:34:59;5.00;99.90
20911;DHT22;10615;42.702;23.314;2023-03-03T00:37:29;4.90;99.90
20911;DHT22;10615;42.702;23.314;2023-03-03T00:38:33;4.90;99.90
20911;DHT22;10615;42.702;23.314;2023-03-03T00:39:37;4.90;99.90
20911;DHT22;10615;42.702;23.314;2023-03-03T00:40:39;4.90;99.90
20911;DHT22;10615;42.702;23.314;2023-03-03T00:41:40;4.90;99.90
20911;DHT22;10615;42.702;23.314;2023-03-03T00:42:54;5.00;99.90
20911;DHT22;10615;42.702;23.314;2023-03-03T00:43:56;5.00;99.90
20911;DHT22;10615;42.702;23.314;2023-03-03T00:44:58;4.90;99.90
20911;DHT22;10615;42.702;23.314;2023-03-03T00:45:59;4.90;99.90
20911;DHT22;10615;42.702;23.314;2023-03-03T00:48:40;4.90;99.90
20911;DHT22;10615;42.702;23.314;2023-03-03T00:49:42;4.90;99.90
20911;DHT22;10615;42.702;23.314;2023-03-03T00:50:43;4.90;99.90
20911;DHT22;10615;42.702;23.314;2023-03-03T00:51:43;4.90;99.90
20911;DHT22;10615;42.702;23.314;2023-03-03T00:54:03;4.90;99.90
20911;DHT22;10615;42.702;23.314;2023-03-03T00:55:05;4.90;99.90
20911;DHT22;10615;42.702;23.314;2023-03-03T00:56:06;4.90;99.90
20911;DHT22;10615;42.702;23.314;2023-03-03T00:57:07;4.90;99.90
20911;DHT22;10615;42.702;23.314;2023-03-03T00:58:08;4.90;99.90
20911;DHT22;10615;42.702;23.314;2023-03-03T00:59:09;4.90;99.90
20911;DHT22;10615;42.702;23.314;2023-03-03T01:00:10;4.90;99.90
20911;DHT22;10615;42.702;23.314;2023-03-03T01:01:12;4.90;99.90
20911;DHT22;10615;42.702;23.314;2023-03-03T01:02:12;4.90;99.90
20911;DHT22;10615;42.702;23.314;2023-03-03T01:03:19;4.90;99.90
20911;DHT22;10615;42.702;23.314;2023-03-03T01:04:20;4.90;99.90
20911;DHT22;10615;42.702;23.314;2023-03-03T01:05:20;4.90;99.90
20911;DHT22;10615;42.702;23.314;2023-03-03T01:06:21;4.90;99.90
20911;DHT22;10615;42.702;23.314;2023-03-03T01:07:22;4.80;99.90
20911;DHT22;10615;42.702;23.314;2023-03-03T01:08:23;4.90;99.90
20911;DHT22;10615;42.702;23.314;2023-03-03T01:09:24;4.90;99.90
20911;DHT22;10615;42.702;23.314;2023-03-03T01:10:26;4.80;99.90
20911;DHT22;10615;42.702;23.314;2023-03-03T01:11:27;4.80;99.90
20911;DHT22;10615;42.702;23.314;2023-03-03T01:12:28;4.90;99.90
20911;DHT22;10615;42.702;23.314;2023-03-03T01:13:31;4.80;99.90
20911;DHT22;10615;42.702;23.314;2023-03-03T01:14:32;4.80;99.90
20911;DHT22;10615;42.702;23.314;2023-03-03T01:15:33;4.80;99.90
20911;DHT22;10615;42.702;23.314;2023-03-03T01:16:34;4.80;99.90
20911;DHT22;10615;42.702;23.314;2023-03-03T01:17:35;4.80;99.90
20911;DHT22;10615;42.702;23.314;2023-03-03T01:18:36;4.80;99.90
20911;DHT22;10615;42.702;23.314;2023-03-03T01:19:37;4.80;99.90
20911;DHT22;10615;42.702;23.314;2023-03-03T01:20:38;4.80;99.90
20911;DHT22;10615;42.702;23.314;2023-03-03T01:21:39;4.80;99.90
20911;DHT22;10615;42.702;23.314;2023-03-03T01:22:40;4.80;99.90
20911;DHT22;10615;42.702;23.314;2023-03-03T01:23:40;4.80;99.90
20911;DHT22;10615;42.702;23.314;2023-03-03T01:24:41;4.80;99.90
20911;DHT22;10615;42.702;23.314;2023-03-03T01:25:42;4.80;99.90
20911;DHT22;10615;42.702;23.314;2023-03-03T01:26:42;4.80;99.90
20911;DHT22;10615;42.702;23.314;2023-03-03T01:27:43;4.80;99.90
20911;DHT22;10615;42.702;23.314;2023-03-03T01:28:44;4.80;99.90
20911;DHT22;10615;42.702;23.314;2023-03-03T01:29:44;4.80;99.90
20911;DHT22;10615;42.702;23.314;2023-03-03T01:30:45;4.80;99.90
20911;DHT22;10615;42.702;23.314;2023-03-03T01:31:46;4.80;99.90
20911;DHT22;10615;42.702;23.314;2023-03-03T01:32:46;4.80;99.90
20911;DHT22;10615;42.702;23.314;2023-03-03T01:33:47;4.70;99.90
20911;DHT22;10615;42.702;23.314;2023-03-03T01:34:48;4.80;99.90
20911;DHT22;10615;42.702;23.314;2023-03-03T01:35:48;4.80;99.90
20911;DHT22;10615;42.702;23.314;2023-03-03T01:36:49;4.80;99.90
20911;DHT22;10615;42.702;23.314;2023-03-03T01:37:49;4.80;99.90
20911;DHT22;10615;42.702;23.314;2023-03-03T01:38:50;4.80;99.90
20911;DHT22;10615;42.702;23.314;2023-03-03T01:39:54;4.80;99.90
20911;DHT22;10615;42.702;23.314;2023-03-03T01:40:57;4.80;99.90
20911;DHT22;10615;42.702;23.314;2023-03-03T01:41:58;4.80;99.90
20911;DHT22;10615;42.702;23.314;2023-03-03T01:42:59;4.80;99.90
20911;DHT22;10615;42.702;23.314;2023-03-03T01:44:00;4.80;99.90
20911;DHT22;10615;42.702;23.314;2023-03-03T01:45:16;4.80;99.90
20911;DHT22;10615;42.702;23.314;2023-03-03T01:47:28;4.80;99.90
20911;DHT22;10615;42.702;23.314;2023-03-03T01:48:39;4.70;99.90
20911;DHT22;10615;42.702;23.314;2023-03-03T01:50:08;4.80;99.90
20911;DHT22;10615;42.702;23.314;2023-03-03T01:51:32;4.80;99.90
20911;DHT22;10615;42.702;23.314;2023-03-03T01:52:37;4.80;99.90
20911;DHT22;10615;42.702;23.314;2023-03-03T01:53:45;4.80;99.90
20911;DHT22;10615;42.702;23.314;2023-03-03T01:54:50;4.80;99.90
20911;DHT22;10615;42.702;23.314;2023-03-03T01:55:52;4.80;99.90
20911;DHT22;10615;42.702;23.314;2023-03-03T01:56:57;4.80;99.90
20911;DHT22;10615;42.702;23.314;2023-03-03T01:58:10;4.80;99.90
20911;DHT22;10615;42.702;23.314;2023-03-03T01:59:22;4.80;99.90
20911;DHT22;10615;42.702;23.314;2023-03-03T02:00:24;4.80;99.90
20911;DHT22;10615;42.702;23.314;2023-03-03T02:01:27;4.80;99.90
20911;DHT22;10615;42.702;23.314;2023-03-03T02:02:29;4.70;99.90
20911;DHT22;10615;42.702;23.314;2023-03-03T02:03:29;4.80;99.90
20911;DHT22;10615;42.702;23.314;2023-03-03T02:04:31;4.70;99.90
20911;DHT22;10615;42.702;23.314;2023-03-03T02:05:34;4.70;99.90
20911;DHT22;10615;42.702;23.314;2023-03-03T02:06:42;4.70;99.90
20911;DHT22;10615;42.702;23.314;2023-03-03T02:07:44;4.70;99.90
20911;DHT22;10615;42.702;23.314;2023-03-03T02:08:56;4.70;99.90
20911;DHT22;10615;42.702;23.314;2023-03-03T02:10:06;4.70;99.90
20911;DHT22;10615;42.702;23.314;2023-03-03T02:11:09;4.60;99.90
20911;DHT22;10615;42.702;23.314;2023-03-03T02:12:13;4.60;99.90
20911;DHT22;10615;42.702;23.314;2023-03-03T02:13:15;4.60;99.90
20911;DHT22;10615;42.702;23.314;2023-03-03T02:14:16;4.60;99.90
20911;DHT22;10615;42.702;23.314;2023-03-03T02:15:35;4.60;99.90
20911;DHT22;10615;42.702;23.314;2023-03-03T02:16:35;4.60;99.90
20911;DHT22;10615;42.702;23.314;2023-03-03T02:17:36;4.60;99.90
20911;DHT22;10615;42.702;23.314;2023-03-03T02:18:37;4.60;99.90
20911;DHT22;10615;42.702;23.314;2023-03-03T02:22:05;4.60;99.90
20911;DHT22;10615;42.702;23.314;2023-03-03T02:23:15;4.60;99.90
20911;DHT22;10615;42.702;23.314;2023-03-03T02:24:46;4.60;99.90
20911;DHT22;10615;42.702;23.314;2023-03-03T02:27:34;4.60;99.90
20911;DHT22;10615;42.702;23.314;2023-03-03T02:28:36;4.70;99.90
20911;DHT22;10615;42.702;23.314;2023-03-03T02:29:37;4.60;99.90
20911;DHT22;10615;42.702;23.314;2023-03-03T02:30:38;4.70;99.90
20911;DHT22;10615;42.702;23.314;2023-03-03T02:31:39;4.60;99.90
20911;DHT22;10615;42.702;23.314;2023-03-03T02:32:40;4.60;99.90
20911;DHT22;10615;42.702;23.314;2023-03-03T02:33:42;4.60;99.90
20911;DHT22;10615;42.702;23.314;2023-03-03T02:34:51;4.70;99.90
20911;DHT22;10615;42.702;23.314;2023-03-03T02:35:52;4.60;99.90
20911;DHT22;10615;42.702;23.314;2023-03-03T02:36:53;4.70;99.90
20911;DHT22;10615;42.702;23.314;2023-03-03T02:37:57;4.70;99.90
20911;DHT22;10615;42.702;23.314;2023-03-03T02:39:14;4.60;99.90
20911;DHT22;10615;42.702;23.314;2023-03-03T02:40:16;4.70;99.90
20911;DHT22;10615;42.702;23.314;2023-03-03T02:41:28;4.60;99.90
20911;DHT22;10615;42.702;23.314;2023-03-03T02:42:30;4.60;99.90
20911;DHT22;10615;42.702;23.314;2023-03-03T02:43:38;4.60;99.90
20911;DHT22;10615;42.702;23.314;2023-03-03T02:44:42;4.60;99.90
20911;DHT22;10615;42.702;23.314;2023-03-03T02:45:43;4.70;99.90
20911;DHT22;10615;42.702;23.314;2023-03-03T02:46:46;4.70;99.90
20911;DHT22;10615;42.702;23.314;2023-03-03T02:47:50;4.70;99.90
20911;DHT22;10615;42.702;23.314;2023-03-03T02:48:51;4.70;99.90
20911;DHT22;10615;42.702;23.314;2023-03-03T02:49:51;4.70;99.90
20911;DHT22;10615;42.702;23.314;2023-03-03T02:50:52;4.70;99.90
20911;DHT22;10615;42.702;23.314;2023-03-03T02:51:53;4.60;99.90
20911;DHT22;10615;42.702;23.314;2023-03-03T02:52:54;4.70;99.90
20911;DHT22;10615;42.702;23.314;2023-03-03T02:53:55;4.60;99.90
20911;DHT22;10615;42.702;23.314;2023-03-03T02:54:55;4.70;99.90
20911;DHT22;10615;42.702;23.314;2023-03-03T02:55:56;4.70;99.90
20911;DHT22;10615;42.702;23.314;2023-03-03T02:56:58;4.60;99.90
20911;DHT22;10615;42.702;23.314;2023-03-03T02:57:58;4.60;99.90
20911;DHT22;10615;42.702;23.314;2023-03-03T02:58:59;4.70;99.90
20911;DHT22;10615;42.702;23.314;2023-03-03T03:00:00;4.70;99.90
20911;DHT22;10615;42.702;23.314;2023-03-03T03:01:01;4.70;99.90
20911;DHT22;10615;42.702;23.314;2023-03-03T03:02:01;4.70;99.90
20911;DHT22;10615;42.702;23.314;2023-03-03T03:03:02;4.70;99.90
20911;DHT22;10615;42.702;23.314;2023-03-03T03:04:09;4.70;99.90
20911;DHT22;10615;42.702;23.314;2023-03-03T03:05:10;4.70;99.90
20911;DHT22;10615;42.702;23.314;2023-03-03T03:06:11;4.70;99.90
20911;DHT22;10615;42.702;23.314;2023-03-03T03:07:12;4.70;99.90
20911;DHT22;10615;42.702;23.314;2023-03-03T03:08:12;4.70;99.90
20911;DHT22;10615;42.702;23.314;2023-03-03T03:09:14;4.70;99.90
20911;DHT22;10615;42.702;23.314;2023-03-03T03:10:15;4.70;99.90
20911;DHT22;10615;42.702;23.314;2023-03-03T03:11:16;4.70;99.90
20911;DHT22;10615;42.702;23.314;2023-03-03T03:12:16;4.60;99.90
20911;DHT22;10615;42.702;23.314;2023-03-03T03:13:18;4.70;99.90
20911;DHT22;10615;42.702;23.314;2023-03-03T03:14:19;4.70;99.90
20911;DHT22;10615;42.702;23.314;2023-03-03T03:15:20;4.60;99.90
20911;DHT22;10615;42.702;23.314;2023-03-03T03:16:20;4.70;99.90
20911;DHT22;10615;42.702;23.314;2023-03-03T03:17:21;4.70;99.90
20911;DHT22;10615;42.702;23.314;2023-03-03T03:18:22;4.70;99.90
20911;DHT22;10615;42.702;23.314;2023-03-03T03:19:22;4.70;99.90
20911;DHT22;10615;42.702;23.314;2023-03-03T03:20:23;4.60;99.90
20911;DHT22;10615;42.702;23.314;2023-03-03T03:21:24;4.60;99.90
20911;DHT22;10615;42.702;23.314;2023-03-03T03:22:24;4.60;99.90
20911;DHT22;10615;42.702;23.314;2023-03-03T03:23:25;4.60;99.90
20911;DHT22;10615;42.702;23.314;2023-03-03T03:24:27;4.60;99.90
20911;DHT22;10615;42.702;23.314;2023-03-03T03:25:28;4.60;99.90
20911;DHT22;10615;42.702;23.314;2023-03-03T03:26:28;4.60;99.90
20911;DHT22;10615;42.702;23.314;2023-03-03T03:27:29;4.60;99.90
20911;DHT22;10615;42.702;23.314;2023-03-03T03:28:30;4.70;99.90
20911;DHT22;10615;42.702;23.314;2023-03-03T03:29:30;4.70;99.90
20911;DHT22;10615;42.702;23.314;2023-03-03T03:30:31;4.60;99.90
20911;DHT22;10615;42.702;23.314;2023-03-03T03:31:32;4.60;99.90
20911;DHT22;10615;42.702;23.314;2023-03-03T03:32:33;4.60;99.90
20911;DHT22;10615;42.702;23.314;2023-03-03T03:33:33;4.60;99.90
20911;DHT22;10615;42.702;23.314;2023-03-03T03:34:34;4.60;99.90
20911;DHT22;10615;42.702;23.314;2023-03-03T03:35:35;4.60;99.90
20911;DHT22;10615;42.702;23.314;2023-03-03T03:36:36;4.60;99.90
20911;DHT22;10615;42.702;23.314;2023-03-03T03:37:39;4.70;99.90
20911;DHT22;10615;42.702;23.314;2023-03-03T03:38:39;4.70;99.90
20911;DHT22;10615;42.702;23.314;2023-03-03T03:39:40;4.60;99.90
20911;DHT22;10615;42.702;23.314;2023-03-03T03:40:41;4.60;99.90
20911;DHT22;10615;42.702;23.314;2023-03-03T03:41:42;4.70;99.90
20911;DHT22;10615;42.702;23.314;2023-03-03T03:42:42;4.60;99.90
20911;DHT22;10615;42.702;23.314;2023-03-03T03:43:43;4.60;99.90
20911;DHT22;10615;42.702;23.314;2023-03-03T03:44:43;4.60;99.90
20911;DHT22;10615;42.702;23.314;2023-03-03T03:45:44;4.60;99.90
20911;DHT22;10615;42.702;23.314;2023-03-03T03:46:45;4.60;99.90
20911;DHT22;10615;42.702;23.314;2023-03-03T03:47:46;4.60;99.90
20911;DHT22;10615;42.702;23.314;2023-03-03T03:48:46;4.60;99.90
20911;DHT22;10615;42.702;23.314;2023-03-03T03:49:47;4.60;99.90
20911;DHT22;10615;42.702;23.314;2023-03-03T03:50:49;4.60;99.90
20911;DHT22;10615;42.702;23.314;2023-03-03T03:51:49;4.60;99.90
20911;DHT22;10615;42.702;23.314;2023-03-03T03:52:50;4.60;99.90
20911;DHT22;10615;42.702;23.314;2023-03-03T03:53:51;4.60;99.90
20911;DHT22;10615;42.702;23.314;2023-03-03T03:54:51;4.60;99.90
20911;DHT22;10615;42.702;23.314;2023-03-03T03:55:52;4.60;99.90
20911;DHT22;10615;42.702;23.314;2023-03-03T03:56:53;4.70;99.90
20911;DHT22;10615;42.702;23.314;2023-03-03T03:57:55;4.60;99.90
20911;DHT22;10615;42.702;23.314;2023-03-03T03:58:56;4.60;99.90
20911;DHT22;10615;42.702;23.314;2023-03-03T03:59:56;4.60;99.90
20911;DHT22;10615;42.702;23.314;2023-03-03T04:01:07;4.70;99.90
20911;DHT22;10615;42.702;23.314;2023-03-03T04:02:08;4.70;99.90
20911;DHT22;10615;42.702;23.314;2023-03-03T04:03:09;4.70;99.90
20911;DHT22;10615;42.702;23.314;2023-03-03T04:04:10;4.70;99.90
20911;DHT22;10615;42.702;23.314;2023-03-03T04:05:10;4.70;99.90
20911;DHT22;10615;42.702;23.314;2023-03-03T04:06:11;4.70;99.90
20911;DHT22;10615;42.702;23.314;2023-03-03T04:07:11;4.60;99.90
20911;DHT22;10615;42.702;23.314;2023-03-03T04:08:12;4.60;99.90
20911;DHT22;10615;42.702;23.314;2023-03-03T04:09:13;4.60;99.90
20911;DHT22;10615;42.702;23.314;2023-03-03T04:10:14;4.60;99.90
20911;DHT22;10615;42.702;23.314;2023-03-03T04:11:14;4.60;99.90
20911;DHT22;10615;42.702;23.314;2023-03-03T04:12:15;4.60;99.90
20911;DHT22;10615;42.702;23.314;2023-03-03T04:13:15;4.60;99.90
20911;DHT22;10615;42.702;23.314;2023-03-03T04:14:16;4.70;99.90
20911;DHT22;10615;42.702;23.314;2023-03-03T04:15:17;4.70;99.90
20911;DHT22;10615;42.702;23.314;2023-03-03T04:16:17;4.70;99.90
20911;DHT22;10615;42.702;23.314;2023-03-03T04:17:20;4.70;99.90
20911;DHT22;10615;42.702;23.314;2023-03-03T04:18:21;4.70;99.90
20911;DHT22;10615;42.702;23.314;2023-03-03T04:19:22;4.70;99.90
20911;DHT22;10615;42.702;23.314;2023-03-03T04:20:23;4.70;99.90
20911;DHT22;10615;42.702;23.314;2023-03-03T04:21:23;4.70;99.90
20911;DHT22;10615;42.702;23.314;2023-03-03T04:22:24;4.70;99.90
20911;DHT22;10615;42.702;23.314;2023-03-03T04:23:25;4.70;99.90
20911;DHT22;10615;42.702;23.314;2023-03-03T04:24:26;4.70;99.90
20911;DHT22;10615;42.702;23.314;2023-03-03T04:25:26;4.70;99.90
20911;DHT22;10615;42.702;23.314;2023-03-03T04:26:27;4.70;99.90
20911;DHT22;10615;42.702;23.314;2023-03-03T04:27:28;4.70;99.90
20911;DHT22;10615;42.702;23.314;2023-03-03T04:28:28;4.70;99.90
20911;DHT22;10615;42.702;23.314;2023-03-03T04:29:29;4.70;99.90
20911;DHT22;10615;42.702;23.314;2023-03-03T04:30:30;4.70;99.90
20911;DHT22;10615;42.702;23.314;2023-03-03T04:31:30;4.70;99.90
20911;DHT22;10615;42.702;23.314;2023-03-03T04:32:32;4.70;99.90
20911;DHT22;10615;42.702;23.314;2023-03-03T04:33:35;4.70;99.90
20911;DHT22;10615;42.702;23.314;2023-03-03T04:34:35;4.70;99.90
20911;DHT22;10615;42.702;23.314;2023-03-03T04:35:36;4.70;99.90
20911;DHT22;10615;42.702;23.314;2023-03-03T04:36:37;4.70;99.90
20911;DHT22;10615;42.702;23.314;2023-03-03T04:37:38;4.70;99.90
20911;DHT22;10615;42.702;23.314;2023-03-03T04:38:39;4.70;99.90
20911;DHT22;10615;42.702;23.314;2023-03-03T04:39:39;4.70;99.90
20911;DHT22;10615;42.702;23.314;2023-03-03T04:40:40;4.70;99.90
20911;DHT22;10615;42.702;23.314;2023-03-03T04:41:41;4.60;99.90
20911;DHT22;10615;42.702;23.314;2023-03-03T04:42:42;4.60;99.90
20911;DHT22;10615;42.702;23.314;2023-03-03T04:43:42;4.60;99.90
20911;DHT22;10615;42.702;23.314;2023-03-03T04:44:43;4.60;99.90
20911;DHT22;10615;42.702;23.314;2023-03-03T04:45:44;4.60;99.90
20911;DHT22;10615;42.702;23.314;2023-03-03T04:46:45;4.60;99.90
20911;DHT22;10615;42.702;23.314;2023-03-03T04:47:45;4.60;99.90
20911;DHT22;10615;42.702;23.314;2023-03-03T04:48:46;4.60;99.90
20911;DHT22;10615;42.702;23.314;2023-03-03T04:49:47;4.70;99.90
20911;DHT22;10615;42.702;23.314;2023-03-03T04:50:47;4.70;99.90
20911;DHT22;10615;42.702;23.314;2023-03-03T04:51:48;4.60;99.90
20911;DHT22;10615;42.702;23.314;2023-03-03T04:52:49;4.60;99.90
20911;DHT22;10615;42.702;23.314;2023-03-03T04:53:49;4.60;99.90
20911;DHT22;10615;42.702;23.314;2023-03-03T04:54:50;4.70;99.90
20911;DHT22;10615;42.702;23.314;2023-03-03T04:55:52;4.70;99.90
20911;DHT22;10615;42.702;23.314;2023-03-03T04:56:53;4.60;99.90
20911;DHT22;10615;42.702;23.314;2023-03-03T04:57:53;4.70;99.90
20911;DHT22;10615;42.702;23.314;2023-03-03T04:58:54;4.70;99.90
20911;DHT22;10615;42.702;23.314;2023-03-03T04:59:55;4.70;99.90
20911;DHT22;10615;42.702;23.314;2023-03-03T05:00:56;4.70;99.90
20911;DHT22;10615;42.702;23.314;2023-03-03T05:01:57;4.70;99.90
20911;DHT22;10615;42.702;23.314;2023-03-03T05:02:57;4.70;99.90
20911;DHT22;10615;42.702;23.314;2023-03-03T05:03:59;4.70;99.90
20911;DHT22;10615;42.702;23.314;2023-03-03T05:05:00;4.60;99.90
20911;DHT22;10615;42.702;23.314;2023-03-03T05:06:00;4.70;99.90
20911;DHT22;10615;42.702;23.314;2023-03-03T05:07:01;4.70;99.90
20911;DHT22;10615;42.702;23.314;2023-03-03T05:08:01;4.60;99.90
20911;DHT22;10615;42.702;23.314;2023-03-03T05:09:02;4.60;99.90
20911;DHT22;10615;42.702;23.314;2023-03-03T05:10:03;4.60;99.90
20911;DHT22;10615;42.702;23.314;2023-03-03T05:11:04;4.70;99.90
20911;DHT22;10615;42.702;23.314;2023-03-03T05:12:05;4.60;99.90
20911;DHT22;10615;42.702;23.314;2023-03-03T05:13:06;4.60;99.90
20911;DHT22;10615;42.702;23.314;2023-03-03T05:14:08;4.60;99.90
20911;DHT22;10615;42.702;23.314;2023-03-03T05:15:09;4.70;99.90
20911;DHT22;10615;42.702;23.314;2023-03-03T05:16:10;4.70;99.90
20911;DHT22;10615;42.702;23.314;2023-03-03T05:17:11;4.70;99.90
20911;DHT22;10615;42.702;23.314;2023-03-03T05:18:11;4.70;99.90
20911;DHT22;10615;42.702;23.314;2023-03-03T05:19:12;4.70;99.90
20911;DHT22;10615;42.702;23.314;2023-03-03T05:20:13;4.70;99.90
20911;DHT22;10615;42.702;23.314;2023-03-03T05:21:14;4.70;99.90
20911;DHT22;10615;42.702;23.314;2023-03-03T05:22:14;4.70;99.90
20911;DHT22;10615;42.702;23.314;2023-03-03T05:23:15;4.70;99.90
20911;DHT22;10615;42.702;23.314;2023-03-03T05:24:16;4.70;99.90
20911;DHT22;10615;42.702;23.314;2023-03-03T05:25:18;4.70;99.90
20911;DHT22;10615;42.702;23.314;2023-03-03T05:26:18;4.70;99.90
20911;DHT22;10615;42.702;23.314;2023-03-03T05:27:19;4.70;99.90
20911;DHT22;10615;42.702;23.314;2023-03-03T05:28:20;4.80;99.90
20911;DHT22;10615;42.702;23.314;2023-03-03T05:29:20;4.80;99.90
20911;DHT22;10615;42.702;23.314;2023-03-03T05:30:21;4.80;99.90
20911;DHT22;10615;42.702;23.314;2023-03-03T05:31:22;4.80;99.90
20911;DHT22;10615;42.702;23.314;2023-03-03T05:32:23;4.70;99.90
20911;DHT22;10615;42.702;23.314;2023-03-03T05:33:23;4.80;99.90
20911;DHT22;10615;42.702;23.314;2023-03-03T05:34:24;4.80;99.90
20911;DHT22;10615;42.702;23.314;2023-03-03T05:35:25;4.70;99.90
20911;DHT22;10615;42.702;23.314;2023-03-03T05:36:26;4.70;99.90
20911;DHT22;10615;42.702;23.314;2023-03-03T05:37:26;4.70;99.90
20911;DHT22;10615;42.702;23.314;2023-03-03T05:38:27;4.70;99.90
20911;DHT22;10615;42.702;23.314;2023-03-03T05:39:28;4.80;99.90
20911;DHT22;10615;42.702;23.314;2023-03-03T05:40:29;4.80;99.90
20911;DHT22;10615;42.702;23.314;2023-03-03T05:41:29;4.80;99.90
20911;DHT22;10615;42.702;23.314;2023-03-03T05:42:30;4.80;99.90
20911;DHT22;10615;42.702;23.314;2023-03-03T05:43:30;4.80;99.90
20911;DHT22;10615;42.702;23.314;2023-03-03T05:44:31;4.80;99.90
20911;DHT22;10615;42.702;23.314;2023-03-03T05:45:32;4.80;99.90
20911;DHT22;10615;42.702;23.314;2023-03-03T05:46:33;4.90;99.90
20911;DHT22;10615;42.702;23.314;2023-03-03T05:47:34;4.90;99.90
20911;DHT22;10615;42.702;23.314;2023-03-03T05:48:35;4.90;99.90
20911;DHT22;10615;42.702;23.314;2023-03-03T05:49:36;4.90;99.90
20911;DHT22;10615;42.702;23.314;2023-03-03T05:50:37;4.90;99.90
20911;DHT22;10615;42.702;23.314;2023-03-03T05:51:38;5.00;99.90
20911;DHT22;10615;42.702;23.314;2023-03-03T05:52:38;4.90;99.90
20911;DHT22;10615;42.702;23.314;2023-03-03T05:53:39;4.90;99.90
20911;DHT22;10615;42.702;23.314;2023-03-03T05:54:40;5.00;99.90
20911;DHT22;10615;42.702;23.314;2023-03-03T05:55:41;5.00;99.90
20911;DHT22;10615;42.702;23.314;2023-03-03T05:56:42;5.00;99.90
20911;DHT22;10615;42.702;23.314;2023-03-03T05:57:43;5.00;99.90
20911;DHT22;10615;42.702;23.314;2023-03-03T05:58:44;5.00;99.90
20911;DHT22;10615;42.702;23.314;2023-03-03T05:59:44;5.00;99.90
20911;DHT22;10615;42.702;23.314;2023-03-03T06:00:45;5.10;99.90
20911;DHT22;10615;42.702;23.314;2023-03-03T06:01:46;5.10;99.90
20911;DHT22;10615;42.702;23.314;2023-03-03T06:02:46;5.10;99.90
20911;DHT22;10615;42.702;23.314;2023-03-03T06:03:47;5.10;99.90
20911;DHT22;10615;42.702;23.314;2023-03-03T06:04:48;5.10;99.90
20911;DHT22;10615;42.702;23.314;2023-03-03T06:05:49;5.10;99.90
20911;DHT22;10615;42.702;23.314;2023-03-03T06:06:49;5.10;99.90
20911;DHT22;10615;42.702;23.314;2023-03-03T06:07:50;5.10;99.90
20911;DHT22;10615;42.702;23.314;2023-03-03T06:08:50;5.10;99.90
20911;DHT22;10615;42.702;23.314;2023-03-03T06:09:53;5.10;99.90
20911;DHT22;10615;42.702;23.314;2023-03-03T06:10:53;5.10;99.90
20911;DHT22;10615;42.702;23.314;2023-03-03T06:11:54;5.10;99.90
20911;DHT22;10615;42.702;23.314;2023-03-03T06:12:55;5.20;99.90
20911;DHT22;10615;42.702;23.314;2023-03-03T06:13:55;5.20;99.90
20911;DHT22;10615;42.702;23.314;2023-03-03T06:14:56;5.20;99.90
20911;DHT22;10615;42.702;23.314;2023-03-03T06:15:57;5.20;99.90
20911;DHT22;10615;42.702;23.314;2023-03-03T06:16:57;5.20;99.90
20911;DHT22;10615;42.702;23.314;2023-03-03T06:17:58;5.10;99.90
20911;DHT22;10615;42.702;23.314;2023-03-03T06:18:59;5.10;99.90
20911;DHT22;10615;42.702;23.314;2023-03-03T06:20:01;5.20;99.90
20911;DHT22;10615;42.702;23.314;2023-03-03T06:21:02;5.20;99.90
20911;DHT22;10615;42.702;23.314;2023-03-03T06:22:03;5.20;99.90
20911;DHT22;10615;42.702;23.314;2023-03-03T06:23:04;5.20;99.90
20911;DHT22;10615;42.702;23.314;2023-03-03T06:24:05;5.20;99.90
20911;DHT22;10615;42.702;23.314;2023-03-03T06:25:06;5.30;99.90
20911;DHT22;10615;42.702;23.314;2023-03-03T06:26:07;5.30;99.90
20911;DHT22;10615;42.702;23.314;2023-03-03T06:27:09;5.30;99.90
20911;DHT22;10615;42.702;23.314;2023-03-03T06:28:09;5.30;99.90
20911;DHT22;10615;42.702;23.314;2023-03-03T06:29:10;5.30;99.90
20911;DHT22;10615;42.702;23.314;2023-03-03T06:30:11;5.30;99.90
20911;DHT22;10615;42.702;23.314;2023-03-03T06:31:12;5.30;99.90
20911;DHT22;10615;42.702;23.314;2023-03-03T06:32:13;5.30;99.90
20911;DHT22;10615;42.702;23.314;2023-03-03T06:33:13;5.30;99.90
20911;DHT22;10615;42.702;23.314;2023-03-03T06:34:14;5.20;99.90
20911;DHT22;10615;42.702;23.314;2023-03-03T06:35:15;5.20;99.90
20911;DHT22;10615;42.702;23.314;2023-03-03T06:36:17;5.30;99.90
20911;DHT22;10615;42.702;23.314;2023-03-03T06:37:18;5.20;99.90
20911;DHT22;10615;42.702;23.314;2023-03-03T06:38:19;5.30;99.90
20911;DHT22;10615;42.702;23.314;2023-03-03T06:39:19;5.20;99.90
20911;DHT22;10615;42.702;23.314;2023-03-03T06:40:20;5.20;99.90
20911;DHT22;10615;42.702;23.314;2023-03-03T06:41:21;5.20;99.90
20911;DHT22;10615;42.702;23.314;2023-03-03T06:42:22;5.30;99.90
20911;DHT22;10615;42.702;23.314;2023-03-03T06:43:24;5.30;99.90